Map

Track Data

SID SEASON NUMBER BASIN SUBBASIN NAME ISO_TIME NATURE LAT LON WMO_WIND WMO_PRES WMO_AGENCY TRACK_TYPE DIST2LAND LANDFALL IFLAG USA_AGENCY USA_ATCF_ID USA_LAT USA_LON USA_RECORD USA_STATUS USA_WIND USA_PRES USA_SSHS USA_R34_NE USA_R34_SE USA_R34_SW USA_R34_NW USA_R50_NE USA_R50_SE USA_R50_SW USA_R50_NW USA_R64_NE USA_R64_SE USA_R64_SW USA_R64_NW USA_POCI USA_ROCI USA_RMW USA_EYE TOKYO_LAT TOKYO_LON TOKYO_GRADE TOKYO_WIND TOKYO_PRES TOKYO_R50_DIR TOKYO_R50_LONG TOKYO_R50_SHORT TOKYO_R30_DIR TOKYO_R30_LONG TOKYO_R30_SHORT TOKYO_LAND CMA_LAT CMA_LON CMA_CAT CMA_WIND CMA_PRES HKO_LAT HKO_LON HKO_CAT HKO_WIND HKO_PRES NEWDELHI_LAT NEWDELHI_LON NEWDELHI_GRADE NEWDELHI_WIND NEWDELHI_PRES NEWDELHI_CI NEWDELHI_DP NEWDELHI_POCI REUNION_LAT REUNION_LON REUNION_TYPE REUNION_WIND REUNION_PRES REUNION_TNUM REUNION_CI REUNION_RMW REUNION_R34_NE REUNION_R34_SE REUNION_R34_SW REUNION_R34_NW REUNION_R50_NE REUNION_R50_SE REUNION_R50_SW REUNION_R50_NW REUNION_R64_NE REUNION_R64_SE REUNION_R64_SW REUNION_R64_NW BOM_LAT BOM_LON BOM_TYPE BOM_WIND BOM_PRES BOM_TNUM BOM_CI BOM_RMW BOM_R34_NE BOM_R34_SE BOM_R34_SW BOM_R34_NW BOM_R50_NE BOM_R50_SE BOM_R50_SW BOM_R50_NW BOM_R64_NE BOM_R64_SE BOM_R64_SW BOM_R64_NW BOM_ROCI BOM_POCI BOM_EYE BOM_POS_METHOD BOM_PRES_METHOD NADI_LAT NADI_LON NADI_CAT NADI_WIND NADI_PRES WELLINGTON_LAT WELLINGTON_LON WELLINGTON_WIND WELLINGTON_PRES DS824_LAT DS824_LON DS824_STAGE DS824_WIND DS824_PRES TD9636_LAT TD9636_LON TD9636_STAGE TD9636_WIND TD9636_PRES TD9635_LAT TD9635_LON TD9635_WIND TD9635_PRES TD9635_ROCI NEUMANN_LAT NEUMANN_LON NEUMANN_CLASS NEUMANN_WIND NEUMANN_PRES MLC_LAT MLC_LON MLC_CLASS MLC_WIND MLC_PRES USA_GUST BOM_GUST BOM_GUST_PER REUNION_GUST REUNION_GUST_PER USA_SEAHGT USA_SEARAD_NE USA_SEARAD_SE USA_SEARAD_SW USA_SEARAD_NW STORM_SPEED STORM_DIR
1889288N14083 1889 33 NI BB NOT_NAMED 1889-10-15 00:00:00 TS 14.0000 83.0000 main 292 260 _________O____ -1 14.0000 83.0000 TC 45 5 277
1889288N14083 1889 33 NI BB NOT_NAMED 1889-10-15 03:00:00 TS 14.0334 82.7317 main 260 229 _________PO___ -1 14.0502 82.5975 TC 45 14.0000 83.0000 3 6 277
1889288N14083 1889 33 NI BB NOT_NAMED 1889-10-15 06:00:00 TS 14.0790 82.3607 main 229 186 _________OP___ -1 14.1000 82.2000 TC 45 14.0474 82.6017 3 7 277
1889288N14083 1889 33 NI BB NOT_NAMED 1889-10-15 09:00:00 TS 14.1266 81.9769 main 186 147 _________PP___ -1 14.1499 81.8075 TC 45 14.0956 82.2027 3 7 277
1889288N14083 1889 33 NI BB NOT_NAMED 1889-10-15 12:00:00 TS 14.1730 81.6012 main 147 106 _________OP___ -1 14.2000 81.4000 TC 45 14.1460 81.8023 3 8 277
1889288N14083 1889 33 NI BB NOT_NAMED 1889-10-15 15:00:00 TS 14.2212 81.1750 main 106 72 _________PO___ -1 14.2425 80.9500 TC 45 14.2000 81.4000 3 8 277
1889288N14083 1889 33 NI BB NOT_NAMED 1889-10-15 18:00:00 TS 14.2797 80.7471 main 63 31 _________OP___ -1 14.3000 80.5000 TC 45 14.2594 80.9942 3 8 280
1889288N14083 1889 33 NI BB NOT_NAMED 1889-10-15 21:00:00 TS 14.3597 80.3436 main 21 0 _________PP___ -1 14.3923 80.1075 TC 45 14.3270 80.5797 3 8 282
1889288N14083 1889 33 NI BB NOT_NAMED 1889-10-16 00:00:00 TS 14.4531 79.9252 main 0 0 _________OP___ -1 14.5000 79.7000 TC 45 14.4062 80.1504 3 9 282
1889288N14083 1889 33 NI BB NOT_NAMED 1889-10-16 03:00:00 TS 14.5462 79.4575 main 0 0 _________PO___ -1 14.5925 79.2149 TC 41 14.5000 79.7000 3 10 282
1889288N14083 1889 33 NI BB NOT_NAMED 1889-10-16 06:00:00 TS 14.6532 78.9608 main 0 0 _________OP___ -1 14.7000 78.7000 TC 37 14.6065 79.2215 3 10 284
1889288N14083 1889 33 NI BB NOT_NAMED 1889-10-16 09:00:00 TS 14.7849 78.4612 main 0 0 _________PP___ -1 14.8424 78.2000 TC 33 14.7273 78.7224 3 10 286
1889288N14083 1889 33 NI AS NOT_NAMED 1889-10-16 12:00:00 TS 14.9298 77.9560 main 0 0 _________OP___ -1 15.0000 77.7000 TC 30 14.8595 78.2121 3 10 287
1889288N14083 1889 33 NI AS NOT_NAMED 1889-10-16 15:00:00 TS 15.0749 77.4500 main 0 0 _________PO___ -1 15.1499 77.1999 TC 30 15.0000 77.7000 1 10 287
1889288N14083 1889 33 NI AS NOT_NAMED 1889-10-16 18:00:00 TS 15.2297 76.9238 main 0 0 _________OP___ -1 15.3000 76.7000 TC 30 15.1594 77.1476 1 11 287
1889288N14083 1889 33 NI AS NOT_NAMED 1889-10-16 21:00:00 TS 15.3941 76.3791 main 0 0 _________PP___ -1 15.4651 76.1551 TC 30 15.3230 76.6031 1 10 287
1889288N14083 1889 33 NI AS NOT_NAMED 1889-10-17 00:00:00 TS 15.5376 75.9035 main 0 0 _________OP___ -1 15.6000 75.7000 TC 30 15.4751 76.1069 1 8 287
1889288N14083 1889 33 NI AS NOT_NAMED 1889-10-17 03:00:00 TS 15.6324 75.5737 main 0 0 _________PO___ -1 15.6648 75.4474 TC 30 15.6000 75.7000 1 5 286
1889288N14083 1889 33 NI AS NOT_NAMED 1889-10-17 06:00:00 TS 15.6829 75.3635 main 0 0 _________OP___ -1 15.7000 75.3000 TC 30 15.6659 75.4270 1 4 284
1889288N14083 1889 33 NI AS NOT_NAMED 1889-10-17 09:00:00 TS 15.7246 75.1972 main 0 0 _________PP___ -1 15.7425 75.1500 TC 30 15.7067 75.2444 1 3 287
1889288N14083 1889 33 NI AS NOT_NAMED 1889-10-17 12:00:00 TS 15.7721 75.0573 main 0 0 _________OP___ -1 15.8000 75.0000 TC 30 15.7442 75.1146 1 3 292
1889288N14083 1889 33 NI AS NOT_NAMED 1889-10-17 15:00:00 TS 15.8425 74.8963 main 0 0 _________PO___ -1 15.8850 74.7925 TC 30 15.8000 75.0000 1 4 297
1889288N14083 1889 33 NI AS NOT_NAMED 1889-10-17 18:00:00 TS 15.9477 74.7032 main 0 0 _________OP___ -1 16.0000 74.6000 TC 30 15.8954 74.8064 1 4 305
1889288N14083 1889 33 NI AS NOT_NAMED 1889-10-17 21:00:00 TS 16.0738 74.5476 main 0 0 _________PP___ -1 16.1350 74.4700 TC 30 16.0126 74.6253 1 4 317
1889288N14083 1889 33 NI AS NOT_NAMED 1889-10-18 00:00:00 TS 16.2242 74.4407 main 0 0 _________OP___ -1 16.3000 74.4000 TC 30 16.1485 74.4815 1 4 334
1889288N14083 1889 33 NI AS NOT_NAMED 1889-10-18 03:00:00 TS 16.4000 74.3813 main 0 0 _________PO___ -1 16.5000 74.3625 TC 30 16.3000 74.4000 1 4 353
1889288N14083 1889 33 NI AS NOT_NAMED 1889-10-18 06:00:00 TS 16.5884 74.4010 main 0 0 _________OP___ -1 16.7000 74.4000 TC 30 16.4768 74.4020 1 4 17
1889288N14083 1889 33 NI AS NOT_NAMED 1889-10-18 09:00:00 TS 16.7650 74.5011 main 0 0 _________PP___ -1 16.8650 74.5349 TC 30 16.6649 74.4672 1 4 34
1889288N14083 1889 33 NI AS NOT_NAMED 1889-10-18 12:00:00 TS 16.9228 74.6369 main 0 0 _________OP___ -1 17.0000 74.7000 TC 30 16.8456 74.5739 1 4 39
1889288N14083 1889 33 NI AS NOT_NAMED 1889-10-18 15:00:00 TS 17.0575 74.7500 main 0 0 _________PO___ -1 17.1150 74.8000 TC 30 17.0000 74.7000 1 3 40
1889288N14083 1889 33 NI AS NOT_NAMED 1889-10-18 18:00:00 TS 17.1394 74.8251 main 0 0 _________OP___ -1 17.2000 74.9000 TC 30 17.0789 74.7503 1 2 51
1889288N14083 1889 33 NI AS NOT_NAMED 1889-10-18 21:00:00 TS 17.1807 74.9069 main 0 0 _________PP___ -1 17.2273 74.9903 TC 30 17.1342 74.8235 1 3 66
1889288N14083 1889 33 NI AS NOT_NAMED 1889-10-19 00:00:00 TS 17.2487 75.0800 main 0 0 _________OP___ -1 17.3000 75.2000 TC 30 17.1974 74.9599 1 5 65
1889288N14083 1889 33 NI AS NOT_NAMED 1889-10-19 03:00:00 TS 17.4138 75.4236 main 0 0 _________PO___ -1 17.5277 75.6472 TC 30 17.3000 75.2000 1 9 63
1889288N14083 1889 33 NI AS NOT_NAMED 1889-10-19 06:00:00 TS 17.6474 75.8998 main 0 0 _________OP___ -1 17.8000 76.2000 TC 30 17.4947 75.5995 1 10 64
1889288N14083 1889 33 NI AS NOT_NAMED 1889-10-19 09:00:00 TS 17.8717 76.4045 main 0 0 _________PP___ -1 18.0149 76.7076 TC 30 17.7285 76.1014 1 11 66
1889288N14083 1889 33 NI AS NOT_NAMED 1889-10-19 12:00:00 TS 18.0864 76.9264 main 0 0 _________OP___ -1 18.2000 77.2000 TC 30 17.9728 76.6527 1 11 67
1889288N14083 1889 33 NI AS NOT_NAMED 1889-10-19 15:00:00 TS 18.2787 77.4288 main 0 0 _________PO___ -1 18.3573 77.6577 TC 30 18.2000 77.2000 1 10 69
1889288N14083 1889 33 NI AS NOT_NAMED 1889-10-19 18:00:00 TS 18.4419 77.9046 main 0 0 _________OP___ -1 18.5000 78.1000 TC 30 18.3838 77.7092 1 10 71
1889288N14083 1889 33 NI BB NOT_NAMED 1889-10-19 21:00:00 TS 18.6014 78.3962 main 0 0 _________PP___ -1 18.6576 78.5949 TC 30 18.5452 78.1975 1 9 71
1889288N14083 1889 33 NI BB NOT_NAMED 1889-10-20 00:00:00 TS 18.7420 78.8186 main 0 0 _________OP___ -1 18.8000 79.0000 TC 30 18.6840 78.6372 1 7 69
1889288N14083 1889 33 NI BB NOT_NAMED 1889-10-20 03:00:00 TS 18.8574 79.0938 main 0 0 _________PO___ -1 18.9148 79.1876 TC 30 18.8000 79.0000 1 5 64
1889288N14083 1889 33 NI BB NOT_NAMED 1889-10-20 06:00:00 TS 18.9499 79.2732 main 0 0 _________OP___ -1 19.0000 79.3000 TC 30 18.8999 79.2464 1 4 65
1889288N14083 1889 33 NI BB NOT_NAMED 1889-10-20 09:00:00 TS 19.0183 79.4553 main 0 0 _________PP___ -1 19.0575 79.4925 TC 30 18.9791 79.4180 1 4 70
1889288N14083 1889 33 NI BB NOT_NAMED 1889-10-20 12:00:00 TS 19.0719 79.6278 main 0 0 _________OP___ -1 19.1000 79.7000 TC 30 19.0438 79.5556 1 3 72
1889288N14083 1889 33 NI BB NOT_NAMED 1889-10-20 15:00:00 TS 19.1250 79.7963 main 0 0 _________PO___ -1 19.1500 79.8925 TC 30 19.1000 79.7000 1 3 73
1889288N14083 1889 33 NI BB NOT_NAMED 1889-10-20 18:00:00 TS 19.1729 79.9761 main 0 0 _________OP___ -1 19.2000 80.1000 TC 30 19.1527 79.8832 1 4 76
1889288N14083 1889 33 NI BB NOT_NAMED 1889-10-20 21:00:00 TS 19.2219 80.1973 main 0 0 _________PP___ -1 19.2501 80.3400 TC 30 19.2032 80.1022 1 4 77
1889288N14083 1889 33 NI BB NOT_NAMED 1889-10-21 00:00:00 TS 19.2681 80.4301 main 0 0 _________OP___ -1 19.3000 80.6000 TC 30 19.2521 80.3451 1 4 78
1889288N14083 1889 33 NI BB NOT_NAMED 1889-10-21 03:00:00 NR 19.3000 80.6000 main 0 __________O___ -1 TC 19.3000 80.6000 1 3 79

About IBTrACS Database

This database is a web-friendly format of International Best Track Archive for Climate Stewardship (IBTrACS), a global best track data archive curated by NOAA dating back to 1842.

Updated: 2021-10-19